sensor_id;sensor_type;location;lat;lon;timestamp;temperature;humidity
19654;DHT22;9975;48.046;7.804;2022-07-12T02:04:08;15.70;99.90
19654;DHT22;9975;48.046;7.804;2022-07-12T02:06:34;15.70;99.90
19654;DHT22;9975;48.046;7.804;2022-07-12T02:09:00;15.70;99.90
19654;DHT22;9975;48.046;7.804;2022-07-12T02:11:26;15.70;99.90
19654;DHT22;9975;48.046;7.804;2022-07-12T02:13:52;15.70;99.90
19654;DHT22;9975;48.046;7.804;2022-07-12T02:16:17;15.60;99.90
19654;DHT22;9975;48.046;7.804;2022-07-12T02:18:43;15.60;99.90
19654;DHT22;9975;48.046;7.804;2022-07-12T02:21:08;15.60;99.90
19654;DHT22;9975;48.046;7.804;2022-07-12T02:23:34;15.50;99.90
19654;DHT22;9975;48.046;7.804;2022-07-12T02:25:59;15.50;99.90
19654;DHT22;9975;48.046;7.804;2022-07-12T02:28:25;15.60;99.90
19654;DHT22;9975;48.046;7.804;2022-07-12T02:30:51;15.50;99.90
19654;DHT22;9975;48.046;7.804;2022-07-12T02:33:17;15.50;99.90
19654;DHT22;9975;48.046;7.804;2022-07-12T02:35:45;15.50;99.90
19654;DHT22;9975;48.046;7.804;2022-07-12T02:38:11;15.40;99.90
19654;DHT22;9975;48.046;7.804;2022-07-12T02:40:37;15.50;99.90
19654;DHT22;9975;48.046;7.804;2022-07-12T02:43:21;15.40;99.90
19654;DHT22;9975;48.046;7.804;2022-07-12T02:45:47;15.40;99.90
19654;DHT22;9975;48.046;7.804;2022-07-12T02:48:13;15.40;99.90
19654;DHT22;9975;48.046;7.804;2022-07-12T02:50:41;15.40;99.90
19654;DHT22;9975;48.046;7.804;2022-07-12T02:53:08;15.40;99.90
19654;DHT22;9975;48.046;7.804;2022-07-12T02:55:34;15.40;99.90
19654;DHT22;9975;48.046;7.804;2022-07-12T02:58:00;15.50;99.90
19654;DHT22;9975;48.046;7.804;2022-07-12T03:00:27;15.50;99.90
19654;DHT22;9975;48.046;7.804;2022-07-12T03:02:53;15.50;99.90
19654;DHT22;9975;48.046;7.804;2022-07-12T03:05:19;15.50;99.90
19654;DHT22;9975;48.046;7.804;2022-07-12T03:07:45;15.50;99.90
19654;DHT22;9975;48.046;7.804;2022-07-12T03:10:10;15.60;99.90
19654;DHT22;9975;48.046;7.804;2022-07-12T03:12:39;15.50;99.90
19654;DHT22;9975;48.046;7.804;2022-07-12T03:15:05;15.40;99.90
19654;DHT22;9975;48.046;7.804;2022-07-12T03:17:32;15.40;99.90
19654;DHT22;9975;48.046;7.804;2022-07-12T03:19:58;15.40;99.90
19654;DHT22;9975;48.046;7.804;2022-07-12T03:22:24;15.40;99.90
19654;DHT22;9975;48.046;7.804;2022-07-12T03:24:50;15.40;99.90
19654;DHT22;9975;48.046;7.804;2022-07-12T03:27:17;15.20;99.90
19654;DHT22;9975;48.046;7.804;2022-07-12T03:29:43;15.10;99.90
19654;DHT22;9975;48.046;7.804;2022-07-12T03:32:09;15.10;99.90
19654;DHT22;9975;48.046;7.804;2022-07-12T03:34:35;15.10;99.90
19654;DHT22;9975;48.046;7.804;2022-07-12T03:37:02;15.10;99.90
19654;DHT22;9975;48.046;7.804;2022-07-12T03:39:27;15.10;99.90
19654;DHT22;9975;48.046;7.804;2022-07-12T03:41:53;15.10;99.90
19654;DHT22;9975;48.046;7.804;2022-07-12T03:44:18;15.10;99.90
19654;DHT22;9975;48.046;7.804;2022-07-12T03:46:44;15.00;99.90
19654;DHT22;9975;48.046;7.804;2022-07-12T03:49:10;15.10;99.90
19654;DHT22;9975;48.046;7.804;2022-07-12T03:51:36;15.00;99.90
19654;DHT22;9975;48.046;7.804;2022-07-12T03:54:01;15.00;99.90
19654;DHT22;9975;48.046;7.804;2022-07-12T03:56:28;15.00;99.90
19654;DHT22;9975;48.046;7.804;2022-07-12T03:59:12;15.00;99.90
19654;DHT22;9975;48.046;7.804;2022-07-12T04:01:38;14.90;99.90
19654;DHT22;9975;48.046;7.804;2022-07-12T04:04:03;14.90;99.90
19654;DHT22;9975;48.046;7.804;2022-07-12T04:06:29;14.90;99.90
19654;DHT22;9975;48.046;7.804;2022-07-12T04:08:55;14.80;99.90
19654;DHT22;9975;48.046;7.804;2022-07-12T04:11:21;14.80;99.90
19654;DHT22;9975;48.046;7.804;2022-07-12T04:13:46;14.80;99.90
19654;DHT22;9975;48.046;7.804;2022-07-12T04:16:12;14.80;99.90
19654;DHT22;9975;48.046;7.804;2022-07-12T04:18:38;14.80;99.90
19654;DHT22;9975;48.046;7.804;2022-07-12T04:21:04;14.90;99.90
19654;DHT22;9975;48.046;7.804;2022-07-12T04:23:29;15.00;99.90
19654;DHT22;9975;48.046;7.804;2022-07-12T04:25:55;15.00;99.90
19654;DHT22;9975;48.046;7.804;2022-07-12T04:28:22;15.00;99.90
19654;DHT22;9975;48.046;7.804;2022-07-12T04:30:47;15.10;99.90
19654;DHT22;9975;48.046;7.804;2022-07-12T04:33:14;15.10;99.90
19654;DHT22;9975;48.046;7.804;2022-07-12T04:35:40;15.10;99.90
19654;DHT22;9975;48.046;7.804;2022-07-12T04:38:07;15.20;99.90
19654;DHT22;9975;48.046;7.804;2022-07-12T04:40:33;15.20;99.90
19654;DHT22;9975;48.046;7.804;2022-07-12T04:42:58;15.30;99.90
19654;DHT22;9975;48.046;7.804;2022-07-12T04:45:25;15.20;99.90
19654;DHT22;9975;48.046;7.804;2022-07-12T04:47:51;15.20;99.90
19654;DHT22;9975;48.046;7.804;2022-07-12T04:50:17;15.20;99.90
19654;DHT22;9975;48.046;7.804;2022-07-12T04:52:42;15.20;99.90
19654;DHT22;9975;48.046;7.804;2022-07-12T04:55:08;15.20;99.90
19654;DHT22;9975;48.046;7.804;2022-07-12T04:57:35;15.20;99.90
19654;DHT22;9975;48.046;7.804;2022-07-12T05:00:02;15.20;99.90
19654;DHT22;9975;48.046;7.804;2022-07-12T05:02:28;15.30;99.90
19654;DHT22;9975;48.046;7.804;2022-07-12T05:04:54;15.30;99.90
19654;DHT22;9975;48.046;7.804;2022-07-12T05:07:19;15.40;99.90
19654;DHT22;9975;48.046;7.804;2022-07-12T05:09:45;15.40;99.90
19654;DHT22;9975;48.046;7.804;2022-07-12T05:12:10;15.40;99.90
19654;DHT22;9975;48.046;7.804;2022-07-12T05:14:36;15.50;99.90
19654;DHT22;9975;48.046;7.804;2022-07-12T05:17:02;15.50;99.90
19654;DHT22;9975;48.046;7.804;2022-07-12T05:19:27;15.60;99.90
19654;DHT22;9975;48.046;7.804;2022-07-12T05:21:53;15.70;99.90
19654;DHT22;9975;48.046;7.804;2022-07-12T05:24:19;15.70;99.90
19654;DHT22;9975;48.046;7.804;2022-07-12T05:26:44;15.70;99.90
19654;DHT22;9975;48.046;7.804;2022-07-12T05:29:10;15.70;99.90
19654;DHT22;9975;48.046;7.804;2022-07-12T05:31:35;15.80;99.90
19654;DHT22;9975;48.046;7.804;2022-07-12T05:34:01;15.90;99.90
19654;DHT22;9975;48.046;7.804;2022-07-12T05:36:27;16.00;99.90
19654;DHT22;9975;48.046;7.804;2022-07-12T05:38:53;16.00;99.90
19654;DHT22;9975;48.046;7.804;2022-07-12T05:41:18;16.10;99.90
19654;DHT22;9975;48.046;7.804;2022-07-12T05:43:44;16.10;99.90
19654;DHT22;9975;48.046;7.804;2022-07-12T05:46:10;16.10;99.90
19654;DHT22;9975;48.046;7.804;2022-07-12T05:48:37;16.00;99.90
19654;DHT22;9975;48.046;7.804;2022-07-12T05:51:03;16.10;99.90
19654;DHT22;9975;48.046;7.804;2022-07-12T05:53:48;16.10;99.90
19654;DHT22;9975;48.046;7.804;2022-07-12T05:56:14;16.20;99.90
19654;DHT22;9975;48.046;7.804;2022-07-12T05:58:40;16.30;99.90
19654;DHT22;9975;48.046;7.804;2022-07-12T06:01:06;16.40;99.90
19654;DHT22;9975;48.046;7.804;2022-07-12T06:03:32;16.40;99.90
19654;DHT22;9975;48.046;7.804;2022-07-12T06:05:58;16.50;99.90
19654;DHT22;9975;48.046;7.804;2022-07-12T06:08:24;16.60;99.90
19654;DHT22;9975;48.046;7.804;2022-07-12T06:10:50;16.70;99.90
19654;DHT22;9975;48.046;7.804;2022-07-12T06:13:15;16.80;99.90
19654;DHT22;9975;48.046;7.804;2022-07-12T06:15:45;16.90;99.90
19654;DHT22;9975;48.046;7.804;2022-07-12T06:18:11;17.00;99.90
19654;DHT22;9975;48.046;7.804;2022-07-12T06:20:36;17.20;99.90
19654;DHT22;9975;48.046;7.804;2022-07-12T06:23:02;17.30;99.90
19654;DHT22;9975;48.046;7.804;2022-07-12T06:25:28;17.40;99.90
19654;DHT22;9975;48.046;7.804;2022-07-12T06:27:55;17.40;99.90
19654;DHT22;9975;48.046;7.804;2022-07-12T06:30:21;17.50;99.90
19654;DHT22;9975;48.046;7.804;2022-07-12T06:32:48;17.60;99.90
19654;DHT22;9975;48.046;7.804;2022-07-12T06:35:14;17.80;99.90
19654;DHT22;9975;48.046;7.804;2022-07-12T06:37:41;18.00;99.90
19654;DHT22;9975;48.046;7.804;2022-07-12T06:40:07;18.10;99.90
19654;DHT22;9975;48.046;7.804;2022-07-12T06:42:34;18.20;99.90
19654;DHT22;9975;48.046;7.804;2022-07-12T06:45:00;18.30;99.90
19654;DHT22;9975;48.046;7.804;2022-07-12T06:47:26;18.40;99.90
19654;DHT22;9975;48.046;7.804;2022-07-12T06:49:51;18.50;99.90
19654;DHT22;9975;48.046;7.804;2022-07-12T06:52:18;18.60;99.90
19654;DHT22;9975;48.046;7.804;2022-07-12T06:54:44;18.60;99.90
19654;DHT22;9975;48.046;7.804;2022-07-12T06:57:10;18.60;99.90
19654;DHT22;9975;48.046;7.804;2022-07-12T06:59:36;18.70;99.90
19654;DHT22;9975;48.046;7.804;2022-07-12T07:02:02;18.70;99.90
19654;DHT22;9975;48.046;7.804;2022-07-12T07:04:28;18.80;99.90
19654;DHT22;9975;48.046;7.804;2022-07-12T07:06:54;19.00;99.90
19654;DHT22;9975;48.046;7.804;2022-07-12T07:09:19;19.10;99.90
19654;DHT22;9975;48.046;7.804;2022-07-12T07:11:45;19.30;99.90
19654;DHT22;9975;48.046;7.804;2022-07-12T07:14:10;19.50;99.90
19654;DHT22;9975;48.046;7.804;2022-07-12T07:16:36;19.50;99.90
19654;DHT22;9975;48.046;7.804;2022-07-12T07:19:02;19.50;99.90
19654;DHT22;9975;48.046;7.804;2022-07-12T07:21:28;19.70;99.90
19654;DHT22;9975;48.046;7.804;2022-07-12T07:23:54;19.70;99.90
19654;DHT22;9975;48.046;7.804;2022-07-12T07:26:21;19.90;99.90
19654;DHT22;9975;48.046;7.804;2022-07-12T07:28:47;19.90;99.90
19654;DHT22;9975;48.046;7.804;2022-07-12T07:31:41;20.00;99.90
19654;DHT22;9975;48.046;7.804;2022-07-12T07:34:07;20.20;99.90
19654;DHT22;9975;48.046;7.804;2022-07-12T07:36:32;20.20;99.90
19654;DHT22;9975;48.046;7.804;2022-07-12T07:38:58;20.40;99.90
19654;DHT22;9975;48.046;7.804;2022-07-12T07:41:24;20.50;99.90
19654;DHT22;9975;48.046;7.804;2022-07-12T07:43:50;20.70;99.90
19654;DHT22;9975;48.046;7.804;2022-07-12T07:46:16;20.90;99.90
19654;DHT22;9975;48.046;7.804;2022-07-12T07:48:42;20.80;99.90
19654;DHT22;9975;48.046;7.804;2022-07-12T07:51:07;20.90;99.90
19654;DHT22;9975;48.046;7.804;2022-07-12T07:53:33;21.10;99.90
19654;DHT22;9975;48.046;7.804;2022-07-12T07:55:59;21.10;99.90
19654;DHT22;9975;48.046;7.804;2022-07-12T07:58:25;21.10;99.90
19654;DHT22;9975;48.046;7.804;2022-07-12T08:00:52;21.40;99.90
19654;DHT22;9975;48.046;7.804;2022-07-12T08:03:18;21.50;99.90
19654;DHT22;9975;48.046;7.804;2022-07-12T08:05:44;21.80;99.90
19654;DHT22;9975;48.046;7.804;2022-07-12T08:08:10;21.90;99.90
19654;DHT22;9975;48.046;7.804;2022-07-12T08:10:36;22.00;99.90
19654;DHT22;9975;48.046;7.804;2022-07-12T08:13:01;22.20;99.90
19654;DHT22;9975;48.046;7.804;2022-07-12T08:15:27;22.10;99.90
19654;DHT22;9975;48.046;7.804;2022-07-12T08:17:53;22.30;99.90
19654;DHT22;9975;48.046;7.804;2022-07-12T08:20:19;22.60;99.80
19654;DHT22;9975;48.046;7.804;2022-07-12T08:22:46;22.60;98.60
19654;DHT22;9975;48.046;7.804;2022-07-12T08:25:15;22.70;99.40
19654;DHT22;9975;48.046;7.804;2022-07-12T08:27:41;22.90;98.30
19654;DHT22;9975;48.046;7.804;2022-07-12T08:30:07;23.20;97.60
19654;DHT22;9975;48.046;7.804;2022-07-12T08:32:33;23.40;95.30
19654;DHT22;9975;48.046;7.804;2022-07-12T08:34:59;23.60;95.20
19654;DHT22;9975;48.046;7.804;2022-07-12T08:37:24;23.90;94.90
19654;DHT22;9975;48.046;7.804;2022-07-12T08:39:51;24.00;93.80
19654;DHT22;9975;48.046;7.804;2022-07-12T08:42:17;23.90;92.90
19654;DHT22;9975;48.046;7.804;2022-07-12T08:44:56;24.00;93.40
19654;DHT22;9975;48.046;7.804;2022-07-12T08:47:22;24.10;92.40
19654;DHT22;9975;48.046;7.804;2022-07-12T08:50:17;24.40;91.30
19654;DHT22;9975;48.046;7.804;2022-07-12T08:52:47;24.40;91.60
19654;DHT22;9975;48.046;7.804;2022-07-12T08:55:33;24.40;90.90
19654;DHT22;9975;48.046;7.804;2022-07-12T08:58:02;24.60;90.30
19654;DHT22;9975;48.046;7.804;2022-07-12T09:00:28;24.70;87.30
19654;DHT22;9975;48.046;7.804;2022-07-12T09:02:59;24.70;85.70
19654;DHT22;9975;48.046;7.804;2022-07-12T09:05:26;25.00;86.50
19654;DHT22;9975;48.046;7.804;2022-07-12T09:08:02;25.40;81.00
19654;DHT22;9975;48.046;7.804;2022-07-12T09:10:28;25.70;78.30
19654;DHT22;9975;48.046;7.804;2022-07-12T09:12:54;25.90;78.50
19654;DHT22;9975;48.046;7.804;2022-07-12T09:15:21;26.00;76.80
19654;DHT22;9975;48.046;7.804;2022-07-12T09:18:06;26.20;75.40
19654;DHT22;9975;48.046;7.804;2022-07-12T09:20:41;26.40;74.60
19654;DHT22;9975;48.046;7.804;2022-07-12T09:23:10;26.00;74.20
19654;DHT22;9975;48.046;7.804;2022-07-12T09:25:38;26.20;73.10
19654;DHT22;9975;48.046;7.804;2022-07-12T09:28:06;26.70;71.90
19654;DHT22;9975;48.046;7.804;2022-07-12T09:30:33;27.00;67.80
19654;DHT22;9975;48.046;7.804;2022-07-12T09:33:01;26.90;69.80
19654;DHT22;9975;48.046;7.804;2022-07-12T09:35:58;27.20;68.00
19654;DHT22;9975;48.046;7.804;2022-07-12T09:41:10;27.70;63.70
19654;DHT22;9975;48.046;7.804;2022-07-12T09:43:39;28.00;62.60
19654;DHT22;9975;48.046;7.804;2022-07-12T09:46:06;28.10;62.50
19654;DHT22;9975;48.046;7.804;2022-07-12T09:48:33;27.30;61.90
19654;DHT22;9975;48.046;7.804;2022-07-12T09:51:02;27.60;63.50
19654;DHT22;9975;48.046;7.804;2022-07-12T09:53:30;28.00;61.00
19654;DHT22;9975;48.046;7.804;2022-07-12T09:55:57;28.20;60.30
19654;DHT22;9975;48.046;7.804;2022-07-12T09:58:27;28.60;59.30
19654;DHT22;9975;48.046;7.804;2022-07-12T10:00:53;29.00;58.30
19654;DHT22;9975;48.046;7.804;2022-07-12T10:03:21;29.30;56.90
19654;DHT22;9975;48.046;7.804;2022-07-12T10:05:50;29.50;56.00
19654;DHT22;9975;48.046;7.804;2022-07-12T10:08:17;28.60;56.50
19654;DHT22;9975;48.046;7.804;2022-07-12T10:10:43;29.00;57.30
19654;DHT22;9975;48.046;7.804;2022-07-12T10:13:08;29.00;56.60
19654;DHT22;9975;48.046;7.804;2022-07-12T10:15:34;29.20;56.00
19654;DHT22;9975;48.046;7.804;2022-07-12T10:18:02;29.50;54.60
19654;DHT22;9975;48.046;7.804;2022-07-12T10:20:29;29.70;54.40
19654;DHT22;9975;48.046;7.804;2022-07-12T10:25:42;30.00;52.60
19654;DHT22;9975;48.046;7.804;2022-07-12T10:28:08;30.00;51.40
19654;DHT22;9975;48.046;7.804;2022-07-12T10:30:43;29.60;51.20
19654;DHT22;9975;48.046;7.804;2022-07-12T10:33:23;29.50;51.90
19654;DHT22;9975;48.046;7.804;2022-07-12T10:38:23;29.50;51.10
19654;DHT22;9975;48.046;7.804;2022-07-12T10:40:50;29.90;51.00
19654;DHT22;9975;48.046;7.804;2022-07-12T10:43:29;29.60;48.80
19654;DHT22;9975;48.046;7.804;2022-07-12T10:46:16;29.80;50.40
19654;DHT22;9975;48.046;7.804;2022-07-12T10:48:42;29.90;48.70
19654;DHT22;9975;48.046;7.804;2022-07-12T10:51:18;30.10;48.30
19654;DHT22;9975;48.046;7.804;2022-07-12T10:54:19;29.60;48.90
19654;DHT22;9975;48.046;7.804;2022-07-12T10:57:05;29.40;48.80
19654;DHT22;9975;48.046;7.804;2022-07-12T10:59:36;29.90;48.80
19654;DHT22;9975;48.046;7.804;2022-07-12T11:02:03;29.90;48.90
19654;DHT22;9975;48.046;7.804;2022-07-12T11:04:29;30.20;49.30
19654;DHT22;9975;48.046;7.804;2022-07-12T11:06:56;30.30;48.80
19654;DHT22;9975;48.046;7.804;2022-07-12T11:09:24;30.30;47.10
19654;DHT22;9975;48.046;7.804;2022-07-12T11:11:51;30.60;46.70
19654;DHT22;9975;48.046;7.804;2022-07-12T11:14:25;31.00;46.20
19654;DHT22;9975;48.046;7.804;2022-07-12T11:16:52;30.90;45.40
19654;DHT22;9975;48.046;7.804;2022-07-12T11:19:28;30.80;45.10
19654;DHT22;9975;48.046;7.804;2022-07-12T11:21:55;30.60;46.00
19654;DHT22;9975;48.046;7.804;2022-07-12T11:24:26;30.80;45.20
19654;DHT22;9975;48.046;7.804;2022-07-12T11:26:52;31.10;44.70
19654;DHT22;9975;48.046;7.804;2022-07-12T11:29:19;31.00;44.30
19654;DHT22;9975;48.046;7.804;2022-07-12T11:31:45;30.80;44.90
19654;DHT22;9975;48.046;7.804;2022-07-12T11:34:24;31.10;44.80
19654;DHT22;9975;48.046;7.804;2022-07-12T11:36:55;31.40;43.20
19654;DHT22;9975;48.046;7.804;2022-07-12T11:42:00;31.50;42.90
19654;DHT22;9975;48.046;7.804;2022-07-12T11:44:49;31.80;42.30
19654;DHT22;9975;48.046;7.804;2022-07-12T11:47:15;31.50;41.90
19654;DHT22;9975;48.046;7.804;2022-07-12T11:49:46;31.90;42.50
19654;DHT22;9975;48.046;7.804;2022-07-12T11:52:14;32.10;41.70
19654;DHT22;9975;48.046;7.804;2022-07-12T11:54:40;32.30;41.90
19654;DHT22;9975;48.046;7.804;2022-07-12T11:57:10;32.30;41.90
19654;DHT22;9975;48.046;7.804;2022-07-12T11:59:36;32.20;41.60
19654;DHT22;9975;48.046;7.804;2022-07-12T12:02:06;32.00;41.60
19654;DHT22;9975;48.046;7.804;2022-07-12T12:04:53;32.30;41.90
19654;DHT22;9975;48.046;7.804;2022-07-12T12:07:20;32.10;41.20
19654;DHT22;9975;48.046;7.804;2022-07-12T12:12:49;31.90;41.40
19654;DHT22;9975;48.046;7.804;2022-07-12T12:15:18;32.40;41.30
19654;DHT22;9975;48.046;7.804;2022-07-12T12:17:51;32.30;41.40
19654;DHT22;9975;48.046;7.804;2022-07-12T12:20:18;32.20;41.40
19654;DHT22;9975;48.046;7.804;2022-07-12T12:22:46;31.90;41.40
19654;DHT22;9975;48.046;7.804;2022-07-12T12:25:13;31.60;41.80
19654;DHT22;9975;48.046;7.804;2022-07-12T12:27:46;31.90;41.60
19654;DHT22;9975;48.046;7.804;2022-07-12T12:30:13;31.60;41.00
19654;DHT22;9975;48.046;7.804;2022-07-12T12:32:46;32.10;40.90
19654;DHT22;9975;48.046;7.804;2022-07-12T12:35:14;32.20;41.50
19654;DHT22;9975;48.046;7.804;2022-07-12T12:37:47;32.50;39.90
19654;DHT22;9975;48.046;7.804;2022-07-12T12:40:18;32.90;39.70
19654;DHT22;9975;48.046;7.804;2022-07-12T12:42:44;33.30;38.70
19654;DHT22;9975;48.046;7.804;2022-07-12T12:45:17;33.20;39.10
19654;DHT22;9975;48.046;7.804;2022-07-12T12:48:17;33.10;39.50
19654;DHT22;9975;48.046;7.804;2022-07-12T12:50:44;32.90;39.70
19654;DHT22;9975;48.046;7.804;2022-07-12T12:55:45;32.40;39.40
19654;DHT22;9975;48.046;7.804;2022-07-12T12:58:12;32.80;40.60
19654;DHT22;9975;48.046;7.804;2022-07-12T13:00:40;33.20;39.00
19654;DHT22;9975;48.046;7.804;2022-07-12T13:03:07;33.50;38.20
19654;DHT22;9975;48.046;7.804;2022-07-12T13:05:33;33.40;38.70
19654;DHT22;9975;48.046;7.804;2022-07-12T13:07:59;33.30;38.00
19654;DHT22;9975;48.046;7.804;2022-07-12T13:10:25;32.90;38.70
19654;DHT22;9975;48.046;7.804;2022-07-12T13:12:51;32.80;39.10
19654;DHT22;9975;48.046;7.804;2022-07-12T13:15:17;32.60;39.60
19654;DHT22;9975;48.046;7.804;2022-07-12T13:17:43;32.40;39.40
19654;DHT22;9975;48.046;7.804;2022-07-12T13:20:10;32.90;39.80
19654;DHT22;9975;48.046;7.804;2022-07-12T13:22:39;33.60;38.40
19654;DHT22;9975;48.046;7.804;2022-07-12T13:25:06;33.80;37.00
19654;DHT22;9975;48.046;7.804;2022-07-12T13:27:31;33.60;37.60
19654;DHT22;9975;48.046;7.804;2022-07-12T13:29:57;33.40;38.10
19654;DHT22;9975;48.046;7.804;2022-07-12T13:32:23;34.00;38.30
19654;DHT22;9975;48.046;7.804;2022-07-12T13:34:50;34.10;35.40
19654;DHT22;9975;48.046;7.804;2022-07-12T13:37:16;34.20;36.00
19654;DHT22;9975;48.046;7.804;2022-07-12T13:39:41;34.40;35.60
19654;DHT22;9975;48.046;7.804;2022-07-12T13:42:25;33.60;36.10
19654;DHT22;9975;48.046;7.804;2022-07-12T13:44:52;34.10;36.50
19654;DHT22;9975;48.046;7.804;2022-07-12T13:47:21;34.10;35.40
19654;DHT22;9975;48.046;7.804;2022-07-12T13:49:48;34.00;36.50
19654;DHT22;9975;48.046;7.804;2022-07-12T13:52:14;34.30;35.90
19654;DHT22;9975;48.046;7.804;2022-07-12T13:54:40;34.60;35.70
19654;DHT22;9975;48.046;7.804;2022-07-12T13:57:09;34.80;35.30
19654;DHT22;9975;48.046;7.804;2022-07-12T13:59:34;34.80;34.70
19654;DHT22;9975;48.046;7.804;2022-07-12T14:02:00;34.30;34.60
19654;DHT22;9975;48.046;7.804;2022-07-12T14:04:26;34.30;35.00
19654;DHT22;9975;48.046;7.804;2022-07-12T14:06:51;34.10;35.00
19654;DHT22;9975;48.046;7.804;2022-07-12T14:09:17;34.30;35.00
19654;DHT22;9975;48.046;7.804;2022-07-12T14:11:43;34.00;34.80
19654;DHT22;9975;48.046;7.804;2022-07-12T14:14:09;34.20;34.60
19654;DHT22;9975;48.046;7.804;2022-07-12T14:16:34;34.00;34.80
19654;DHT22;9975;48.046;7.804;2022-07-12T14:19:00;33.20;35.30
19654;DHT22;9975;48.046;7.804;2022-07-12T14:21:29;32.90;36.00
19654;DHT22;9975;48.046;7.804;2022-07-12T14:23:56;32.40;37.30
19654;DHT22;9975;48.046;7.804;2022-07-12T14:26:24;32.90;37.20
19654;DHT22;9975;48.046;7.804;2022-07-12T14:28:50;33.20;37.40
19654;DHT22;9975;48.046;7.804;2022-07-12T14:31:16;33.40;36.80
19654;DHT22;9975;48.046;7.804;2022-07-12T14:33:42;32.80;37.10
19654;DHT22;9975;48.046;7.804;2022-07-12T14:36:07;33.30;36.80
19654;DHT22;9975;48.046;7.804;2022-07-12T14:38:33;33.40;36.40
19654;DHT22;9975;48.046;7.804;2022-07-12T14:40:59;33.70;35.80
19654;DHT22;9975;48.046;7.804;2022-07-12T14:43:25;34.10;35.30
19654;DHT22;9975;48.046;7.804;2022-07-12T14:45:50;33.90;35.20
19654;DHT22;9975;48.046;7.804;2022-07-12T14:48:16;34.20;34.80
19654;DHT22;9975;48.046;7.804;2022-07-12T14:50:42;34.10;34.70
19654;DHT22;9975;48.046;7.804;2022-07-12T14:53:07;34.10;35.20
19654;DHT22;9975;48.046;7.804;2022-07-12T14:55:33;33.50;35.50
19654;DHT22;9975;48.046;7.804;2022-07-12T14:57:59;32.90;35.90
19654;DHT22;9975;48.046;7.804;2022-07-12T15:00:26;33.00;36.70
19654;DHT22;9975;48.046;7.804;2022-07-12T15:02:52;33.40;36.00
19654;DHT22;9975;48.046;7.804;2022-07-12T15:05:18;33.80;35.80
19654;DHT22;9975;48.046;7.804;2022-07-12T15:07:44;33.80;35.70
19654;DHT22;9975;48.046;7.804;2022-07-12T15:10:09;33.00;35.40
19654;DHT22;9975;48.046;7.804;2022-07-12T15:12:35;32.90;36.20
19654;DHT22;9975;48.046;7.804;2022-07-12T15:15:01;33.40;36.00
19654;DHT22;9975;48.046;7.804;2022-07-12T15:17:27;33.80;35.90
19654;DHT22;9975;48.046;7.804;2022-07-12T15:19:53;34.10;35.40
19654;DHT22;9975;48.046;7.804;2022-07-12T15:22:19;34.40;34.80
19654;DHT22;9975;48.046;7.804;2022-07-12T15:24:45;34.10;33.90
19654;DHT22;9975;48.046;7.804;2022-07-12T15:27:11;34.10;34.00
19654;DHT22;9975;48.046;7.804;2022-07-12T15:29:38;34.10;34.30
19654;DHT22;9975;48.046;7.804;2022-07-12T15:32:06;34.20;34.50
19654;DHT22;9975;48.046;7.804;2022-07-12T15:34:32;34.30;33.70
19654;DHT22;9975;48.046;7.804;2022-07-12T15:37:00;34.20;33.60
19654;DHT22;9975;48.046;7.804;2022-07-12T15:39:26;34.10;33.30
19654;DHT22;9975;48.046;7.804;2022-07-12T15:41:53;33.90;33.50
19654;DHT22;9975;48.046;7.804;2022-07-12T15:44:18;33.80;34.30
19654;DHT22;9975;48.046;7.804;2022-07-12T15:46:44;33.70;34.40
19654;DHT22;9975;48.046;7.804;2022-07-12T15:49:10;33.80;33.80
19654;DHT22;9975;48.046;7.804;2022-07-12T15:51:37;33.80;33.90
19654;DHT22;9975;48.046;7.804;2022-07-12T15:54:23;33.70;34.30
19654;DHT22;9975;48.046;7.804;2022-07-12T15:56:49;33.50;34.30
19654;DHT22;9975;48.046;7.804;2022-07-12T15:59:15;33.40;34.00
19654;DHT22;9975;48.046;7.804;2022-07-12T16:01:41;33.30;34.50
19654;DHT22;9975;48.046;7.804;2022-07-12T16:04:08;33.30;34.00
19654;DHT22;9975;48.046;7.804;2022-07-12T16:06:34;33.20;33.80
19654;DHT22;9975;48.046;7.804;2022-07-12T16:09:02;33.00;34.10
19654;DHT22;9975;48.046;7.804;2022-07-12T16:11:28;33.20;34.50
19654;DHT22;9975;48.046;7.804;2022-07-12T16:13:53;33.20;34.10
19654;DHT22;9975;48.046;7.804;2022-07-12T16:16:19;33.10;34.20
19654;DHT22;9975;48.046;7.804;2022-07-12T16:18:45;33.00;33.90
19654;DHT22;9975;48.046;7.804;2022-07-12T16:21:10;33.00;33.90
19654;DHT22;9975;48.046;7.804;2022-07-12T16:23:36;32.90;34.40
19654;DHT22;9975;48.046;7.804;2022-07-12T16:26:02;32.80;34.40
19654;DHT22;9975;48.046;7.804;2022-07-12T16:28:29;32.70;34.70
19654;DHT22;9975;48.046;7.804;2022-07-12T16:30:54;32.70;35.00
19654;DHT22;9975;48.046;7.804;2022-07-12T16:33:20;32.50;34.80
19654;DHT22;9975;48.046;7.804;2022-07-12T16:35:45;32.60;34.90
19654;DHT22;9975;48.046;7.804;2022-07-12T16:38:11;32.50;34.90
19654;DHT22;9975;48.046;7.804;2022-07-12T16:40:37;32.40;35.00
19654;DHT22;9975;48.046;7.804;2022-07-12T16:43:02;32.20;35.00
19654;DHT22;9975;48.046;7.804;2022-07-12T16:45:28;32.10;35.30
19654;DHT22;9975;48.046;7.804;2022-07-12T16:47:56;32.20;35.10
19654;DHT22;9975;48.046;7.804;2022-07-12T16:50:21;32.10;35.40
19654;DHT22;9975;48.046;7.804;2022-07-12T16:52:47;32.00;35.50
19654;DHT22;9975;48.046;7.804;2022-07-12T16:55:13;32.00;35.50
19654;DHT22;9975;48.046;7.804;2022-07-12T16:57:39;31.90;35.40
19654;DHT22;9975;48.046;7.804;2022-07-12T17:00:08;31.80;35.30
19654;DHT22;9975;48.046;7.804;2022-07-12T17:02:35;31.80;35.20
19654;DHT22;9975;48.046;7.804;2022-07-12T17:05:03;31.60;35.20
19654;DHT22;9975;48.046;7.804;2022-07-12T17:07:29;31.60;35.80
19654;DHT22;9975;48.046;7.804;2022-07-12T17:09:54;31.50;35.80
19654;DHT22;9975;48.046;7.804;2022-07-12T17:12:20;31.30;35.70
19654;DHT22;9975;48.046;7.804;2022-07-12T17:14:46;31.00;36.10
19654;DHT22;9975;48.046;7.804;2022-07-12T17:17:12;30.80;37.10
19654;DHT22;9975;48.046;7.804;2022-07-12T17:19:39;30.60;36.30
19654;DHT22;9975;48.046;7.804;2022-07-12T17:22:04;30.60;36.70
19654;DHT22;9975;48.046;7.804;2022-07-12T17:24:31;30.70;37.00
19654;DHT22;9975;48.046;7.804;2022-07-12T17:26:57;30.80;37.30
19654;DHT22;9975;48.046;7.804;2022-07-12T17:29:22;30.90;36.90
19654;DHT22;9975;48.046;7.804;2022-07-12T17:31:48;30.90;37.50
19654;DHT22;9975;48.046;7.804;2022-07-12T17:34:14;30.80;36.60
19654;DHT22;9975;48.046;7.804;2022-07-12T17:36:39;30.70;36.90
19654;DHT22;9975;48.046;7.804;2022-07-12T17:39:05;30.80;36.90
19654;DHT22;9975;48.046;7.804;2022-07-12T17:41:31;30.70;37.00
19654;DHT22;9975;48.046;7.804;2022-07-12T17:43:57;30.70;36.60
19654;DHT22;9975;48.046;7.804;2022-07-12T17:46:25;30.40;36.80
19654;DHT22;9975;48.046;7.804;2022-07-12T17:48:51;30.30;37.30
19654;DHT22;9975;48.046;7.804;2022-07-12T17:51:17;30.10;37.40
19654;DHT22;9975;48.046;7.804;2022-07-12T17:53:44;30.10;37.60
19654;DHT22;9975;48.046;7.804;2022-07-12T17:56:10;29.80;38.00
19654;DHT22;9975;48.046;7.804;2022-07-12T17:58:35;29.80;38.30
19654;DHT22;9975;48.046;7.804;2022-07-12T18:01:13;29.70;38.60
19654;DHT22;9975;48.046;7.804;2022-07-12T18:03:40;29.70;38.70
19654;DHT22;9975;48.046;7.804;2022-07-12T18:06:07;29.70;38.80